UAUU

Kostanay West Airport

Kostanay, Kazakhstan
TAF UAUU 181700Z 1818/1903 21003MPS 0400 FZFG VV002 TEMPO 1819/1903 2000 BR BKN003
Issued Valid From Valid To
Jan-18 @ 17:00 UTC
(3 hours ago)
Jan-18 @ 18:00 UTC
(2 hours ago)
Jan-19 @ 03:00 UTC
(in 7 hours)
Jan-18 @ 18:00 to Jan-19 @ 03:00
TAF UAUU 181700Z 1818/1903 21003MPS 0400 FZFG VV002
Wind Visibility Clouds Conditions
210° at 6 knots 402 meters
  • Vertical visibility at 200' AGL
  • Freezing
  • Fog
Temporary Jan-18 @ 19:00 to Jan-19 @ 03:00
TEMPO 1819/1903 2000 BR BKN003
Visibility Clouds Conditions
1,996 meters
  • Broken at 300' AGL
  • Mist
TAF UAUU 181700Z 1818/1903 21003MPS 0400 FZFG VV002 TEMPO 1819/1903 2000 BR BKN003
Issued Jan-18 @ 17:00 UTC
(3 hours ago)
Valid From Jan-18 @ 18:00 UTC
(2 hours ago)
Valid To Jan-19 @ 03:00 UTC
(in 7 hours)
Jan-18 @ 18:00 - Jan-19 @ 03:00
Wind Visibility
210° at 6 knots 402 meters
Clouds
  • Vertical visibility at 200' AGL
Conditions
  • Freezing
  • Fog
Temporary Jan-18 @ 19:00 - Jan-19 @ 03:00
Clouds
  • Broken at 300' AGL
Conditions
  • Mist